sensor_id;sensor_type;location;lat;lon;timestamp;pressure;altitude;pressure_sealevel;temperature;humidity
72157;BME280;60035;52.122;5.406;2023-11-22T00:02:09;102981.38;;;4.43;100.00
72157;BME280;60035;52.122;5.406;2023-11-22T00:04:36;102978.88;;;4.44;100.00
72157;BME280;60035;52.122;5.406;2023-11-22T00:07:03;102978.84;;;4.43;100.00
72157;BME280;60035;52.122;5.406;2023-11-22T00:09:30;102973.59;;;4.37;100.00
72157;BME280;60035;52.122;5.406;2023-11-22T00:11:56;102976.91;;;4.34;100.00
72157;BME280;60035;52.122;5.406;2023-11-22T00:14:23;102979.34;;;4.31;100.00
72157;BME280;60035;52.122;5.406;2023-11-22T00:20:12;103003.63;;;4.24;100.00
72157;BME280;60035;52.122;5.406;2023-11-22T00:22:38;103009.44;;;4.20;100.00
72157;BME280;60035;52.122;5.406;2023-11-22T00:25:22;103008.72;;;4.24;100.00
72157;BME280;60035;52.122;5.406;2023-11-22T00:27:49;103004.44;;;4.23;100.00
72157;BME280;60035;52.122;5.406;2023-11-22T00:30:16;103006.16;;;4.24;100.00
72157;BME280;60035;52.122;5.406;2023-11-22T00:32:42;103009.38;;;4.19;100.00
72157;BME280;60035;52.122;5.406;2023-11-22T00:35:16;103012.75;;;4.19;100.00
72157;BME280;60035;52.122;5.406;2023-11-22T00:37:42;103011.91;;;4.19;100.00
72157;BME280;60035;52.122;5.406;2023-11-22T00:40:09;103007.84;;;4.24;100.00
72157;BME280;60035;52.122;5.406;2023-11-22T00:42:40;103016.34;;;4.26;100.00
72157;BME280;60035;52.122;5.406;2023-11-22T00:45:20;103006.28;;;4.27;100.00
72157;BME280;60035;52.122;5.406;2023-11-22T00:47:48;103003.88;;;4.32;100.00
72157;BME280;60035;52.122;5.406;2023-11-22T00:50:14;103003.94;;;4.33;100.00
72157;BME280;60035;52.122;5.406;2023-11-22T00:52:46;103007.44;;;4.37;100.00
72157;BME280;60035;52.122;5.406;2023-11-22T00:55:45;103009.16;;;4.38;100.00
72157;BME280;60035;52.122;5.406;2023-11-22T00:58:12;103010.66;;;4.31;100.00
72157;BME280;60035;52.122;5.406;2023-11-22T01:00:38;103023.19;;;4.28;100.00
72157;BME280;60035;52.122;5.406;2023-11-22T01:03:05;103024.03;;;4.27;100.00
72157;BME280;60035;52.122;5.406;2023-11-22T01:09:19;103037.28;;;4.19;100.00
72157;BME280;60035;52.122;5.406;2023-11-22T01:11:45;103044.78;;;4.15;100.00
72157;BME280;60035;52.122;5.406;2023-11-22T01:14:12;103049.78;;;4.14;100.00
72157;BME280;60035;52.122;5.406;2023-11-22T01:17:04;103067.31;;;4.06;100.00
72157;BME280;60035;52.122;5.406;2023-11-22T01:19:31;103068.97;;;4.06;100.00
72157;BME280;60035;52.122;5.406;2023-11-22T01:21:58;103071.28;;;3.99;100.00
72157;BME280;60035;52.122;5.406;2023-11-22T01:24:25;103079.53;;;3.94;100.00
72157;BME280;60035;52.122;5.406;2023-11-22T01:27:08;103076.97;;;3.92;100.00
72157;BME280;60035;52.122;5.406;2023-11-22T01:29:34;103077.75;;;3.91;100.00
72157;BME280;60035;52.122;5.406;2023-11-22T01:32:01;103080.19;;;3.88;100.00
72157;BME280;60035;52.122;5.406;2023-11-22T01:34:29;103084.28;;;3.84;100.00
72157;BME280;60035;52.122;5.406;2023-11-22T01:36:57;103088.47;;;3.82;100.00
72157;BME280;60035;52.122;5.406;2023-11-22T01:39:23;103085.84;;;3.81;100.00
72157;BME280;60035;52.122;5.406;2023-11-22T01:41:50;103085.84;;;3.81;100.00
72157;BME280;60035;52.122;5.406;2023-11-22T01:44:17;103086.34;;;3.71;100.00
72157;BME280;60035;52.122;5.406;2023-11-22T01:47:16;103082.78;;;3.65;100.00
72157;BME280;60035;52.122;5.406;2023-11-22T01:49:44;103081.81;;;3.62;100.00
72157;BME280;60035;52.122;5.406;2023-11-22T01:52:12;103080.78;;;3.57;100.00
72157;BME280;60035;52.122;5.406;2023-11-22T01:54:39;103078.81;;;3.48;100.00
72157;BME280;60035;52.122;5.406;2023-11-22T01:57:07;103077.03;;;3.45;100.00
72157;BME280;60035;52.122;5.406;2023-11-22T01:59:35;103079.47;;;3.44;100.00
72157;BME280;60035;52.122;5.406;2023-11-22T02:02:02;103076.13;;;3.45;100.00
72157;BME280;60035;52.122;5.406;2023-11-22T02:04:30;103081.25;;;3.46;100.00
72157;BME280;60035;52.122;5.406;2023-11-22T02:06:59;103086.97;;;3.41;100.00
72157;BME280;60035;52.122;5.406;2023-11-22T02:09:26;103089.16;;;3.31;100.00
72157;BME280;60035;52.122;5.406;2023-11-22T02:11:52;103094.81;;;3.24;100.00
72157;BME280;60035;52.122;5.406;2023-11-22T02:14:19;103100.78;;;3.26;100.00
72157;BME280;60035;52.122;5.406;2023-11-22T02:16:47;103093.72;;;3.17;100.00
72157;BME280;60035;52.122;5.406;2023-11-22T02:19:15;103096.91;;;3.13;100.00
72157;BME280;60035;52.122;5.406;2023-11-22T02:21:43;103095.13;;;3.11;100.00
72157;BME280;60035;52.122;5.406;2023-11-22T02:24:10;103102.63;;;3.08;100.00
72157;BME280;60035;52.122;5.406;2023-11-22T02:26:37;103105.16;;;3.08;100.00
72157;BME280;60035;52.122;5.406;2023-11-22T02:29:05;103089.84;;;3.05;100.00
72157;BME280;60035;52.122;5.406;2023-11-22T02:31:33;103090.72;;;3.05;100.00
72157;BME280;60035;52.122;5.406;2023-11-22T02:34:00;103090.41;;;2.97;100.00
72157;BME280;60035;52.122;5.406;2023-11-22T02:36:29;103092.09;;;2.97;100.00
72157;BME280;60035;52.122;5.406;2023-11-22T02:38:57;103085.28;;;2.96;100.00
72157;BME280;60035;52.122;5.406;2023-11-22T02:41:27;103080.81;;;2.89;100.00
72157;BME280;60035;52.122;5.406;2023-11-22T02:43:56;103079.72;;;2.82;100.00
72157;BME280;60035;52.122;5.406;2023-11-22T02:46:35;103082.34;;;2.85;100.00
72157;BME280;60035;52.122;5.406;2023-11-22T02:49:01;103084.03;;;2.85;100.00
72157;BME280;60035;52.122;5.406;2023-11-22T02:51:28;103076.31;;;2.81;100.00
72157;BME280;60035;52.122;5.406;2023-11-22T02:53:54;103075.50;;;2.82;100.00
72157;BME280;60035;52.122;5.406;2023-11-22T02:56:23;103076.25;;;2.80;100.00
72157;BME280;60035;52.122;5.406;2023-11-22T02:58:50;103079.47;;;2.76;100.00
72157;BME280;60035;52.122;5.406;2023-11-22T03:01:17;103064.03;;;2.70;100.00
72157;BME280;60035;52.122;5.406;2023-11-22T03:03:44;103072.38;;;2.67;100.00
72157;BME280;60035;52.122;5.406;2023-11-22T03:06:27;103073.19;;;2.66;100.00
72157;BME280;60035;52.122;5.406;2023-11-22T03:08:54;103073.19;;;2.66;100.00
72157;BME280;60035;52.122;5.406;2023-11-22T03:11:20;103076.38;;;2.62;100.00
72157;BME280;60035;52.122;5.406;2023-11-22T03:13:48;103085.66;;;2.61;100.00
72157;BME280;60035;52.122;5.406;2023-11-22T03:16:30;103092.13;;;2.55;100.00
72157;BME280;60035;52.122;5.406;2023-11-22T03:18:56;103097.97;;;2.54;100.00
72157;BME280;60035;52.122;5.406;2023-11-22T03:21:24;103096.13;;;2.49;100.00
72157;BME280;60035;52.122;5.406;2023-11-22T03:23:54;103102.66;;;2.44;100.00
72157;BME280;60035;52.122;5.406;2023-11-22T03:26:39;103112.91;;;2.47;100.00
72157;BME280;60035;52.122;5.406;2023-11-22T03:29:06;103111.97;;;2.45;100.00
72157;BME280;60035;52.122;5.406;2023-11-22T03:31:32;103117.66;;;2.40;100.00
72157;BME280;60035;52.122;5.406;2023-11-22T03:33:59;103128.63;;;2.40;100.00
72157;BME280;60035;52.122;5.406;2023-11-22T03:36:43;103140.59;;;2.44;100.00
72157;BME280;60035;52.122;5.406;2023-11-22T03:39:10;103138.00;;;2.43;100.00
72157;BME280;60035;52.122;5.406;2023-11-22T03:41:36;103143.00;;;2.41;100.00
72157;BME280;60035;52.122;5.406;2023-11-22T03:44:06;103148.97;;;2.43;100.00
72157;BME280;60035;52.122;5.406;2023-11-22T03:47:01;103144.75;;;2.42;100.00
72157;BME280;60035;52.122;5.406;2023-11-22T03:49:28;103153.06;;;2.40;100.00
72157;BME280;60035;52.122;5.406;2023-11-22T03:51:54;103153.84;;;2.39;100.00
72157;BME280;60035;52.122;5.406;2023-11-22T03:54:21;103161.50;;;2.40;100.00
72157;BME280;60035;52.122;5.406;2023-11-22T03:56:47;103171.72;;;2.43;100.00
72157;BME280;60035;52.122;5.406;2023-11-22T03:59:14;103171.09;;;2.47;100.00
72157;BME280;60035;52.122;5.406;2023-11-22T04:01:41;103170.19;;;2.47;100.00
72157;BME280;60035;52.122;5.406;2023-11-22T04:04:12;103179.47;;;2.46;100.00
72157;BME280;60035;52.122;5.406;2023-11-22T04:06:42;103181.78;;;2.42;100.00
72157;BME280;60035;52.122;5.406;2023-11-22T04:09:09;103184.13;;;2.37;100.00
72157;BME280;60035;52.122;5.406;2023-11-22T04:11:39;103190.09;;;2.39;100.00
72157;BME280;60035;52.122;5.406;2023-11-22T04:14:05;103186.00;;;2.41;100.00
72157;BME280;60035;52.122;5.406;2023-11-22T04:16:40;103194.38;;;2.40;100.00
72157;BME280;60035;52.122;5.406;2023-11-22T04:19:07;103187.50;;;2.38;100.00
72157;BME280;60035;52.122;5.406;2023-11-22T04:21:34;103189.25;;;2.39;100.00
72157;BME280;60035;52.122;5.406;2023-11-22T04:24:01;103190.44;;;2.47;100.00
72157;BME280;60035;52.122;5.406;2023-11-22T04:26:49;103190.44;;;2.47;100.00
72157;BME280;60035;52.122;5.406;2023-11-22T04:29:16;103192.03;;;2.45;100.00
72157;BME280;60035;52.122;5.406;2023-11-22T04:31:43;103202.94;;;2.44;100.00
72157;BME280;60035;52.122;5.406;2023-11-22T04:34:10;103197.09;;;2.45;100.00
72157;BME280;60035;52.122;5.406;2023-11-22T04:36:37;103204.69;;;2.45;100.00
72157;BME280;60035;52.122;5.406;2023-11-22T04:39:05;103210.59;;;2.45;100.00
72157;BME280;60035;52.122;5.406;2023-11-22T04:41:34;103206.41;;;2.46;100.00
72157;BME280;60035;52.122;5.406;2023-11-22T04:44:01;103202.34;;;2.49;100.00
72157;BME280;60035;52.122;5.406;2023-11-22T04:46:33;103209.06;;;2.49;100.00
72157;BME280;60035;52.122;5.406;2023-11-22T04:49:00;103209.00;;;2.47;100.00
72157;BME280;60035;52.122;5.406;2023-11-22T04:51:27;103200.59;;;2.48;100.00
72157;BME280;60035;52.122;5.406;2023-11-22T04:53:55;103197.22;;;2.48;100.00
72157;BME280;60035;52.122;5.406;2023-11-22T04:56:22;103202.28;;;2.48;100.00
72157;BME280;60035;52.122;5.406;2023-11-22T04:58:49;103204.94;;;2.51;100.00
72157;BME280;60035;52.122;5.406;2023-11-22T05:01:15;103200.03;;;2.54;100.00
72157;BME280;60035;52.122;5.406;2023-11-22T05:03:46;103187.09;;;2.48;100.00
72157;BME280;60035;52.122;5.406;2023-11-22T05:06:19;103194.63;;;2.46;100.00
72157;BME280;60035;52.122;5.406;2023-11-22T05:08:47;103189.53;;;2.45;100.00
72157;BME280;60035;52.122;5.406;2023-11-22T05:11:13;103186.03;;;2.43;100.00
72157;BME280;60035;52.122;5.406;2023-11-22T05:13:42;103185.25;;;2.44;100.00
72157;BME280;60035;52.122;5.406;2023-11-22T05:19:17;103195.16;;;2.39;100.00
72157;BME280;60035;52.122;5.406;2023-11-22T05:21:43;103185.09;;;2.41;100.00
72157;BME280;60035;52.122;5.406;2023-11-22T05:24:10;103187.84;;;2.45;100.00
72157;BME280;60035;52.122;5.406;2023-11-22T05:26:38;103199.63;;;2.45;100.00
72157;BME280;60035;52.122;5.406;2023-11-22T05:29:04;103185.31;;;2.45;100.00
72157;BME280;60035;52.122;5.406;2023-11-22T05:31:31;103180.38;;;2.48;100.00
72157;BME280;60035;52.122;5.406;2023-11-22T05:33:58;103190.44;;;2.47;100.00
72157;BME280;60035;52.122;5.406;2023-11-22T05:36:26;103187.00;;;2.45;100.00
72157;BME280;60035;52.122;5.406;2023-11-22T05:38:52;103185.38;;;2.47;100.00
72157;BME280;60035;52.122;5.406;2023-11-22T05:41:19;103188.84;;;2.49;100.00
72157;BME280;60035;52.122;5.406;2023-11-22T05:43:45;103198.13;;;2.50;100.00
72157;BME280;60035;52.122;5.406;2023-11-22T05:46:15;103204.06;;;2.50;100.00
72157;BME280;60035;52.122;5.406;2023-11-22T05:48:48;103212.66;;;2.54;100.00
72157;BME280;60035;52.122;5.406;2023-11-22T05:51:16;103210.44;;;2.62;100.00
72157;BME280;60035;52.122;5.406;2023-11-22T05:53:43;103218.22;;;2.66;100.00
72157;BME280;60035;52.122;5.406;2023-11-22T05:56:12;103221.59;;;2.67;100.00
72157;BME280;60035;52.122;5.406;2023-11-22T05:58:38;103200.53;;;2.66;100.00
72157;BME280;60035;52.122;5.406;2023-11-22T06:01:06;103207.44;;;2.71;100.00
72157;BME280;60035;52.122;5.406;2023-11-22T06:03:33;103210.69;;;2.68;100.00
72157;BME280;60035;52.122;5.406;2023-11-22T06:06:10;103208.16;;;2.68;100.00
72157;BME280;60035;52.122;5.406;2023-11-22T06:08:36;103210.69;;;2.68;100.00
72157;BME280;60035;52.122;5.406;2023-11-22T06:11:03;103214.16;;;2.70;100.00
72157;BME280;60035;52.122;5.406;2023-11-22T06:13:30;103222.50;;;2.67;100.00
72157;BME280;60035;52.122;5.406;2023-11-22T06:15:58;103214.75;;;2.64;100.00
72157;BME280;60035;52.122;5.406;2023-11-22T06:18:24;103207.31;;;2.67;100.00
72157;BME280;60035;52.122;5.406;2023-11-22T06:20:56;103208.78;;;2.62;100.00
72157;BME280;60035;52.122;5.406;2023-11-22T06:23:23;103215.09;;;2.53;100.00
72157;BME280;60035;52.122;5.406;2023-11-22T06:25:54;103218.69;;;2.58;100.00
72157;BME280;60035;52.122;5.406;2023-11-22T06:28:20;103234.03;;;2.61;100.00
72157;BME280;60035;52.122;5.406;2023-11-22T06:30:47;103239.94;;;2.61;100.00
72157;BME280;60035;52.122;5.406;2023-11-22T06:33:14;103240.78;;;2.62;100.00
72157;BME280;60035;52.122;5.406;2023-11-22T06:35:41;103244.13;;;2.61;100.00
72157;BME280;60035;52.122;5.406;2023-11-22T06:38:08;103241.59;;;2.61;100.00
72157;BME280;60035;52.122;5.406;2023-11-22T06:40:35;103239.94;;;2.61;100.00
72157;BME280;60035;52.122;5.406;2023-11-22T06:43:02;103233.13;;;2.60;100.00
72157;BME280;60035;52.122;5.406;2023-11-22T06:45:32;103224.56;;;2.57;100.00
72157;BME280;60035;52.122;5.406;2023-11-22T06:47:58;103221.22;;;2.58;100.00
72157;BME280;60035;52.122;5.406;2023-11-22T06:50:25;103220.50;;;2.60;100.00
72157;BME280;60035;52.122;5.406;2023-11-22T06:52:52;103207.25;;;2.66;100.00
72157;BME280;60035;52.122;5.406;2023-11-22T06:55:19;103214.03;;;2.67;100.00
72157;BME280;60035;52.122;5.406;2023-11-22T06:57:46;103208.16;;;2.68;100.00
72157;BME280;60035;52.122;5.406;2023-11-22T07:00:12;103204.06;;;2.70;100.00
72157;BME280;60035;52.122;5.406;2023-11-22T07:02:39;103208.22;;;2.70;100.00
72157;BME280;60035;52.122;5.406;2023-11-22T07:05:07;103205.84;;;2.73;100.00
72157;BME280;60035;52.122;5.406;2023-11-22T07:07:35;103208.50;;;2.76;100.00
72157;BME280;60035;52.122;5.406;2023-11-22T07:10:03;103212.59;;;2.74;100.00
72157;BME280;60035;52.122;5.406;2023-11-22T07:12:32;103217.81;;;2.77;100.00
72157;BME280;60035;52.122;5.406;2023-11-22T07:15:02;103226.47;;;2.82;100.00
72157;BME280;60035;52.122;5.406;2023-11-22T07:17:29;103231.59;;;2.83;100.00
72157;BME280;60035;52.122;5.406;2023-11-22T07:19:56;103224.78;;;2.82;100.00
72157;BME280;60035;52.122;5.406;2023-11-22T07:22:23;103236.69;;;2.85;100.00
72157;BME280;60035;52.122;5.406;2023-11-22T07:24:50;103229.84;;;2.82;100.00
72157;BME280;60035;52.122;5.406;2023-11-22T07:27:37;103223.84;;;2.80;100.00
72157;BME280;60035;52.122;5.406;2023-11-22T07:30:04;103217.81;;;2.77;100.00
72157;BME280;60035;52.122;5.406;2023-11-22T07:32:30;103222.09;;;2.78;100.00
72157;BME280;60035;52.122;5.406;2023-11-22T07:35:16;103222.09;;;2.78;100.00
72157;BME280;60035;52.122;5.406;2023-11-22T07:37:42;103233.22;;;2.83;100.00
72157;BME280;60035;52.122;5.406;2023-11-22T07:40:09;103230.91;;;2.88;100.00
72157;BME280;60035;52.122;5.406;2023-11-22T07:42:38;103242.03;;;2.91;100.00
72157;BME280;60035;52.122;5.406;2023-11-22T07:45:06;103248.00;;;2.93;100.00
72157;BME280;60035;52.122;5.406;2023-11-22T07:47:33;103238.88;;;2.97;100.00
72157;BME280;60035;52.122;5.406;2023-11-22T07:50:00;103240.22;;;2.89;100.00
72157;BME280;60035;52.122;5.406;2023-11-22T07:52:28;103238.44;;;2.86;100.00
72157;BME280;60035;52.122;5.406;2023-11-22T07:55:15;103236.75;;;2.87;100.00
72157;BME280;60035;52.122;5.406;2023-11-22T07:57:44;103230.69;;;2.83;100.00
72157;BME280;60035;52.122;5.406;2023-11-22T08:00:12;103241.75;;;2.85;100.00
72157;BME280;60035;52.122;5.406;2023-11-22T08:02:39;103246.75;;;2.83;100.00
72157;BME280;60035;52.122;5.406;2023-11-22T08:05:11;103260.47;;;2.89;100.00
72157;BME280;60035;52.122;5.406;2023-11-22T08:07:39;103271.50;;;2.91;100.00
72157;BME280;60035;52.122;5.406;2023-11-22T08:10:10;103281.84;;;2.95;100.00
72157;BME280;60035;52.122;5.406;2023-11-22T08:12:48;103288.03;;;3.02;100.00
72157;BME280;60035;52.122;5.406;2023-11-22T08:15:19;103291.56;;;3.06;100.00
72157;BME280;60035;52.122;5.406;2023-11-22T08:17:47;103295.06;;;3.09;100.00
72157;BME280;60035;52.122;5.406;2023-11-22T08:20:14;103298.47;;;3.10;100.00
72157;BME280;60035;52.122;5.406;2023-11-22T08:22:45;103301.13;;;3.13;100.00
72157;BME280;60035;52.122;5.406;2023-11-22T08:25:29;103297.06;;;3.16;100.00
72157;BME280;60035;52.122;5.406;2023-11-22T08:27:55;103303.09;;;3.20;100.00
72157;BME280;60035;52.122;5.406;2023-11-22T08:30:22;103308.34;;;3.25;100.00
72157;BME280;60035;52.122;5.406;2023-11-22T08:32:49;103300.88;;;3.28;100.00
72157;BME280;60035;52.122;5.406;2023-11-22T08:35:23;103295.00;;;3.29;100.00
72157;BME280;60035;52.122;5.406;2023-11-22T08:37:50;103296.91;;;3.34;100.00
72157;BME280;60035;52.122;5.406;2023-11-22T08:40:17;103297.00;;;3.36;100.00
72157;BME280;60035;52.122;5.406;2023-11-22T08:42:47;103290.31;;;3.38;100.00
72157;BME280;60035;52.122;5.406;2023-11-22T08:45:16;103289.56;;;3.41;100.00
72157;BME280;60035;52.122;5.406;2023-11-22T08:47:43;103290.50;;;3.43;100.00
72157;BME280;60035;52.122;5.406;2023-11-22T08:50:10;103285.56;;;3.46;100.00
72157;BME280;60035;52.122;5.406;2023-11-22T08:52:42;103291.63;;;3.49;100.00
72157;BME280;60035;52.122;5.406;2023-11-22T08:55:19;103297.66;;;3.53;100.00
72157;BME280;60035;52.122;5.406;2023-11-22T08:57:50;103291.84;;;3.56;100.00
72157;BME280;60035;52.122;5.406;2023-11-22T09:00:19;103290.13;;;3.55;100.00
72157;BME280;60035;52.122;5.406;2023-11-22T09:02:48;103288.41;;;3.54;100.00
72157;BME280;60035;52.122;5.406;2023-11-22T09:05:39;103286.38;;;3.67;100.00
72157;BME280;60035;52.122;5.406;2023-11-22T09:08:06;103287.44;;;3.73;100.00
72157;BME280;60035;52.122;5.406;2023-11-22T09:10:45;103294.59;;;3.83;100.00
72157;BME280;60035;52.122;5.406;2023-11-22T09:13:11;103290.50;;;3.87;100.00
72157;BME280;60035;52.122;5.406;2023-11-22T09:15:44;103292.34;;;3.91;100.00
72157;BME280;60035;52.122;5.406;2023-11-22T09:18:11;103290.84;;;3.96;100.00
72157;BME280;60035;52.122;5.406;2023-11-22T09:20:41;103291.81;;;3.99;100.00
72157;BME280;60035;52.122;5.406;2023-11-22T09:23:11;103290.16;;;4.00;100.00
72157;BME280;60035;52.122;5.406;2023-11-22T09:25:42;103294.69;;;4.09;100.00
72157;BME280;60035;52.122;5.406;2023-11-22T09:28:10;103299.72;;;4.07;100.00
72157;BME280;60035;52.122;5.406;2023-11-22T09:30:37;103304.16;;;4.13;100.00
72157;BME280;60035;52.122;5.406;2023-11-22T09:33:15;103303.34;;;4.14;100.00
72157;BME280;60035;52.122;5.406;2023-11-22T09:35:46;103299.34;;;4.21;100.00
72157;BME280;60035;52.122;5.406;2023-11-22T09:38:15;103301.44;;;4.31;100.00
72157;BME280;60035;52.122;5.406;2023-11-22T09:40:45;103303.16;;;4.32;100.00
72157;BME280;60035;52.122;5.406;2023-11-22T09:43:13;103297.44;;;4.38;100.00
72157;BME280;60035;52.122;5.406;2023-11-22T09:45:48;103296.81;;;4.43;100.00
72157;BME280;60035;52.122;5.406;2023-11-22T09:48:22;103293.69;;;4.50;100.00
72157;BME280;60035;52.122;5.406;2023-11-22T09:53:50;103300.06;;;4.63;100.00
72157;BME280;60035;52.122;5.406;2023-11-22T09:56:26;103301.88;;;4.67;100.00
72157;BME280;60035;52.122;5.406;2023-11-22T09:58:55;103302.88;;;4.71;100.00
72157;BME280;60035;52.122;5.406;2023-11-22T10:01:23;103296.28;;;4.76;100.00
72157;BME280;60035;52.122;5.406;2023-11-22T10:03:50;103308.13;;;4.77;100.00
72157;BME280;60035;52.122;5.406;2023-11-22T10:06:32;103294.81;;;4.83;100.00
72157;BME280;60035;52.122;5.406;2023-11-22T10:09:03;103284.78;;;4.88;100.00
72157;BME280;60035;52.122;5.406;2023-11-22T10:11:36;103279.00;;;4.92;100.00
72157;BME280;60035;52.122;5.406;2023-11-22T10:14:05;103278.19;;;4.93;100.00
72157;BME280;60035;52.122;5.406;2023-11-22T10:16:35;103265.69;;;4.97;100.00
72157;BME280;60035;52.122;5.406;2023-11-22T10:19:03;103259.72;;;4.97;100.00
72157;BME280;60035;52.122;5.406;2023-11-22T10:21:33;103271.81;;;5.04;100.00
72157;BME280;60035;52.122;5.406;2023-11-22T10:24:01;103270.22;;;5.08;100.00
72157;BME280;60035;52.122;5.406;2023-11-22T10:29:36;103260.28;;;5.14;100.00
72157;BME280;60035;52.122;5.406;2023-11-22T10:32:03;103268.88;;;5.17;100.00
72157;BME280;60035;52.122;5.406;2023-11-22T10:34:30;103263.91;;;5.22;100.00
72157;BME280;60035;52.122;5.406;2023-11-22T10:37:04;103258.13;;;5.26;100.00
72157;BME280;60035;52.122;5.406;2023-11-22T10:39:30;103248.25;;;5.36;100.00
72157;BME280;60035;52.122;5.406;2023-11-22T10:41:57;103249.28;;;5.42;100.00
72157;BME280;60035;52.122;5.406;2023-11-22T10:44:26;103247.09;;;5.53;100.00
72157;BME280;60035;52.122;5.406;2023-11-22T10:47:03;103237.22;;;5.62;100.00
72157;BME280;60035;52.122;5.406;2023-11-22T10:49:30;103231.38;;;5.65;100.00
72157;BME280;60035;52.122;5.406;2023-11-22T10:51:57;103237.22;;;5.62;100.00
72157;BME280;60035;52.122;5.406;2023-11-22T10:54:26;103230.53;;;5.66;100.00
72157;BME280;60035;52.122;5.406;2023-11-22T10:57:03;103239.84;;;5.65;100.00
72157;BME280;60035;52.122;5.406;2023-11-22T10:59:30;103231.44;;;5.68;100.00
72157;BME280;60035;52.122;5.406;2023-11-22T11:02:00;103227.25;;;5.70;100.00
72157;BME280;60035;52.122;5.406;2023-11-22T11:04:40;103235.81;;;5.72;100.00
72157;BME280;60035;52.122;5.406;2023-11-22T11:07:35;103235.16;;;5.79;100.00
72157;BME280;60035;52.122;5.406;2023-11-22T11:10:04;103225.25;;;5.89;100.00
72157;BME280;60035;52.122;5.406;2023-11-22T11:12:42;103219.50;;;5.94;100.00
72157;BME280;60035;52.122;5.406;2023-11-22T11:15:33;103196.88;;;6.04;100.00
72157;BME280;60035;52.122;5.406;2023-11-22T11:18:00;103179.63;;;6.24;100.00
72157;BME280;60035;52.122;5.406;2023-11-22T11:23:20;103172.31;;;6.38;100.00
72157;BME280;60035;52.122;5.406;2023-11-22T11:25:48;103163.88;;;6.39;100.00
72157;BME280;60035;52.122;5.406;2023-11-22T11:28:15;103157.91;;;6.37;100.00
72157;BME280;60035;52.122;5.406;2023-11-22T11:30:45;103159.53;;;6.34;100.00
72157;BME280;60035;52.122;5.406;2023-11-22T11:33:13;103158.69;;;6.34;100.00
72157;BME280;60035;52.122;5.406;2023-11-22T11:35:57;103152.63;;;6.29;100.00
72157;BME280;60035;52.122;5.406;2023-11-22T11:38:30;103139.13;;;6.31;100.00
72157;BME280;60035;52.122;5.406;2023-11-22T11:41:06;103136.66;;;6.36;100.00
72157;BME280;60035;52.122;5.406;2023-11-22T11:46:14;103128.97;;;6.33;100.00
72157;BME280;60035;52.122;5.406;2023-11-22T11:48:45;103132.28;;;6.30;100.00
72157;BME280;60035;52.122;5.406;2023-11-22T11:51:15;103135.66;;;6.29;100.00
72157;BME280;60035;52.122;5.406;2023-11-22T11:53:42;103139.16;;;6.33;100.00
72157;BME280;60035;52.122;5.406;2023-11-22T11:56:15;103141.84;;;6.39;100.00
72157;BME280;60035;52.122;5.406;2023-11-22T11:58:42;103135.88;;;6.39;100.00
72157;BME280;60035;52.122;5.406;2023-11-22T12:01:12;103140.22;;;6.43;100.00
72157;BME280;60035;52.122;5.406;2023-11-22T12:03:39;103137.00;;;6.48;100.00
72157;BME280;60035;52.122;5.406;2023-11-22T12:06:09;103136.38;;;6.59;100.00
72157;BME280;60035;52.122;5.406;2023-11-22T12:08:36;103129.56;;;6.56;100.00
72157;BME280;60035;52.122;5.406;2023-11-22T12:11:03;103128.88;;;6.63;100.00
72157;BME280;60035;52.122;5.406;2023-11-22T12:13:31;103122.22;;;6.70;100.00
72157;BME280;60035;52.122;5.406;2023-11-22T12:15:58;103119.81;;;6.75;100.00
72157;BME280;60035;52.122;5.406;2023-11-22T12:18:26;103124.00;;;6.73;100.00
72157;BME280;60035;52.122;5.406;2023-11-22T12:20:57;103125.69;;;6.72;100.00
72157;BME280;60035;52.122;5.406;2023-11-22T12:23:24;103118.13;;;6.77;100.00
72157;BME280;60035;52.122;5.406;2023-11-22T12:25:56;103103.81;;;6.80;100.00
72157;BME280;60035;52.122;5.406;2023-11-22T12:28:26;103112.28;;;6.81;100.00
72157;BME280;60035;52.122;5.406;2023-11-22T12:30:53;103108.38;;;6.95;100.00
72157;BME280;60035;52.122;5.406;2023-11-22T12:33:20;103113.00;;;7.12;100.00
72157;BME280;60035;52.122;5.406;2023-11-22T12:36:00;103111.53;;;7.25;100.00
72157;BME280;60035;52.122;5.406;2023-11-22T12:38:27;103099.66;;;7.24;100.00
72157;BME280;60035;52.122;5.406;2023-11-22T12:40:56;103105.44;;;7.16;100.00
72157;BME280;60035;52.122;5.406;2023-11-22T12:43:23;103100.31;;;7.15;100.00
72157;BME280;60035;52.122;5.406;2023-11-22T12:49:06;103093.34;;;7.08;100.00
72157;BME280;60035;52.122;5.406;2023-11-22T12:51:32;103082.34;;;7.09;100.00
72157;BME280;60035;52.122;5.406;2023-11-22T12:53:59;103084.81;;;7.04;100.00
72157;BME280;60035;52.122;5.406;2023-11-22T12:56:26;103079.69;;;7.03;100.00
72157;BME280;60035;52.122;5.406;2023-11-22T12:58:55;103069.28;;;6.93;100.00
72157;BME280;60035;52.122;5.406;2023-11-22T13:01:21;103070.91;;;6.90;100.00
72157;BME280;60035;52.122;5.406;2023-11-22T13:03:49;103065.81;;;6.90;100.00
72157;BME280;60035;52.122;5.406;2023-11-22T13:06:43;103061.47;;;6.86;100.00
72157;BME280;60035;52.122;5.406;2023-11-22T13:09:09;103052.16;;;6.88;100.00
72157;BME280;60035;52.122;5.406;2023-11-22T13:11:42;103051.31;;;6.87;100.00
72157;BME280;60035;52.122;5.406;2023-11-22T13:14:10;103041.06;;;6.84;100.00
72157;BME280;60035;52.122;5.406;2023-11-22T13:16:55;103032.50;;;6.80;100.00
72157;BME280;60035;52.122;5.406;2023-11-22T13:19:22;103027.31;;;6.77;100.00
72157;BME280;60035;52.122;5.406;2023-11-22T13:21:49;103032.31;;;6.71;100.00
72157;BME280;60035;52.122;5.406;2023-11-22T13:24:16;103039.00;;;6.67;100.00
72157;BME280;60035;52.122;5.406;2023-11-22T13:26:47;103037.22;;;6.63;100.00
72157;BME280;60035;52.122;5.406;2023-11-22T13:29:13;103026.06;;;6.58;100.00